sensor_id;sensor_type;location;lat;lon;timestamp;P1;durP1;ratioP1;P2;durP2;ratioP2
65757;SDS011;52495;52.208;5.158;2023-06-22T00:01:14;4.95;;;3.42;;
65757;SDS011;52495;52.208;5.158;2023-06-22T00:03:41;6.45;;;3.95;;
65757;SDS011;52495;52.208;5.158;2023-06-22T00:06:07;8.75;;;4.13;;
65757;SDS011;52495;52.208;5.158;2023-06-22T00:08:34;7.22;;;4.15;;
65757;SDS011;52495;52.208;5.158;2023-06-22T00:11:01;6.60;;;3.95;;
65757;SDS011;52495;52.208;5.158;2023-06-22T00:13:28;7.40;;;4.72;;
65757;SDS011;52495;52.208;5.158;2023-06-22T00:15:56;6.45;;;4.20;;
65757;SDS011;52495;52.208;5.158;2023-06-22T00:18:22;5.78;;;4.13;;
65757;SDS011;52495;52.208;5.158;2023-06-22T00:20:53;7.32;;;4.28;;
65757;SDS011;52495;52.208;5.158;2023-06-22T00:23:22;7.15;;;4.05;;
65757;SDS011;52495;52.208;5.158;2023-06-22T00:25:50;6.45;;;4.50;;
65757;SDS011;52495;52.208;5.158;2023-06-22T00:28:17;5.78;;;4.45;;
65757;SDS011;52495;52.208;5.158;2023-06-22T00:30:44;6.65;;;5.03;;
65757;SDS011;52495;52.208;5.158;2023-06-22T00:33:12;7.38;;;5.20;;
65757;SDS011;52495;52.208;5.158;2023-06-22T00:35:39;10.57;;;7.82;;
65757;SDS011;52495;52.208;5.158;2023-06-22T00:38:07;9.02;;;6.28;;
65757;SDS011;52495;52.208;5.158;2023-06-22T00:40:34;8.52;;;5.70;;
65757;SDS011;52495;52.208;5.158;2023-06-22T00:43:01;8.00;;;5.78;;
65757;SDS011;52495;52.208;5.158;2023-06-22T00:45:28;6.90;;;5.22;;
65757;SDS011;52495;52.208;5.158;2023-06-22T00:47:55;10.65;;;5.70;;
65757;SDS011;52495;52.208;5.158;2023-06-22T00:50:26;8.35;;;5.55;;
65757;SDS011;52495;52.208;5.158;2023-06-22T00:52:54;6.47;;;5.07;;
65757;SDS011;52495;52.208;5.158;2023-06-22T00:55:23;7.03;;;5.18;;
65757;SDS011;52495;52.208;5.158;2023-06-22T00:57:51;6.00;;;4.80;;
65757;SDS011;52495;52.208;5.158;2023-06-22T01:00:21;7.32;;;5.18;;
65757;SDS011;52495;52.208;5.158;2023-06-22T01:02:50;13.52;;;6.15;;
65757;SDS011;52495;52.208;5.158;2023-06-22T01:05:17;9.30;;;5.57;;
65757;SDS011;52495;52.208;5.158;2023-06-22T01:07:48;10.98;;;6.05;;
65757;SDS011;52495;52.208;5.158;2023-06-22T01:10:25;8.60;;;6.15;;
65757;SDS011;52495;52.208;5.158;2023-06-22T01:12:58;10.23;;;7.97;;
65757;SDS011;52495;52.208;5.158;2023-06-22T01:15:30;11.27;;;7.63;;
65757;SDS011;52495;52.208;5.158;2023-06-22T01:18:02;10.05;;;7.22;;
65757;SDS011;52495;52.208;5.158;2023-06-22T01:20:31;9.15;;;7.13;;
65757;SDS011;52495;52.208;5.158;2023-06-22T01:23:07;9.50;;;6.88;;
65757;SDS011;52495;52.208;5.158;2023-06-22T01:25:41;7.60;;;6.00;;
65757;SDS011;52495;52.208;5.158;2023-06-22T01:28:16;8.90;;;6.53;;
65757;SDS011;52495;52.208;5.158;2023-06-22T01:30:51;8.88;;;6.30;;
65757;SDS011;52495;52.208;5.158;2023-06-22T01:33:28;6.90;;;5.93;;
65757;SDS011;52495;52.208;5.158;2023-06-22T01:35:59;8.15;;;5.78;;
65757;SDS011;52495;52.208;5.158;2023-06-22T01:38:27;8.10;;;6.45;;
65757;SDS011;52495;52.208;5.158;2023-06-22T01:40:55;9.65;;;7.60;;
65757;SDS011;52495;52.208;5.158;2023-06-22T01:43:24;9.10;;;6.80;;
65757;SDS011;52495;52.208;5.158;2023-06-22T01:45:56;9.55;;;6.60;;
65757;SDS011;52495;52.208;5.158;2023-06-22T01:48:24;9.10;;;7.47;;
65757;SDS011;52495;52.208;5.158;2023-06-22T01:50:51;13.00;;;7.88;;
65757;SDS011;52495;52.208;5.158;2023-06-22T01:53:20;12.57;;;7.90;;
65757;SDS011;52495;52.208;5.158;2023-06-22T01:55:50;9.90;;;7.75;;
65757;SDS011;52495;52.208;5.158;2023-06-22T01:58:17;10.35;;;7.85;;
65757;SDS011;52495;52.208;5.158;2023-06-22T02:00:48;11.45;;;7.80;;
65757;SDS011;52495;52.208;5.158;2023-06-22T02:03:21;9.38;;;7.22;;
65757;SDS011;52495;52.208;5.158;2023-06-22T02:08:24;12.25;;;8.88;;
65757;SDS011;52495;52.208;5.158;2023-06-22T02:10:54;10.55;;;8.55;;
65757;SDS011;52495;52.208;5.158;2023-06-22T02:13:23;11.02;;;9.35;;
65757;SDS011;52495;52.208;5.158;2023-06-22T02:15:51;10.68;;;7.43;;
65757;SDS011;52495;52.208;5.158;2023-06-22T02:18:20;11.57;;;8.95;;
65757;SDS011;52495;52.208;5.158;2023-06-22T02:20:47;12.77;;;8.93;;
65757;SDS011;52495;52.208;5.158;2023-06-22T02:23:14;11.07;;;9.07;;
65757;SDS011;52495;52.208;5.158;2023-06-22T02:25:41;12.38;;;8.40;;
65757;SDS011;52495;52.208;5.158;2023-06-22T02:28:09;11.30;;;8.93;;
65757;SDS011;52495;52.208;5.158;2023-06-22T02:30:37;11.60;;;8.73;;
65757;SDS011;52495;52.208;5.158;2023-06-22T02:33:06;11.25;;;8.05;;
65757;SDS011;52495;52.208;5.158;2023-06-22T02:35:34;12.20;;;9.18;;
65757;SDS011;52495;52.208;5.158;2023-06-22T02:38:02;11.80;;;8.48;;
65757;SDS011;52495;52.208;5.158;2023-06-22T02:40:30;12.93;;;9.02;;
65757;SDS011;52495;52.208;5.158;2023-06-22T02:42:57;12.60;;;9.27;;
65757;SDS011;52495;52.208;5.158;2023-06-22T02:45:27;12.55;;;9.50;;
65757;SDS011;52495;52.208;5.158;2023-06-22T02:47:54;14.80;;;9.10;;
65757;SDS011;52495;52.208;5.158;2023-06-22T02:50:22;12.50;;;8.48;;
65757;SDS011;52495;52.208;5.158;2023-06-22T02:52:51;12.77;;;9.43;;
65757;SDS011;52495;52.208;5.158;2023-06-22T02:55:18;12.55;;;10.48;;
65757;SDS011;52495;52.208;5.158;2023-06-22T02:57:52;14.02;;;10.27;;
65757;SDS011;52495;52.208;5.158;2023-06-22T03:00:19;13.93;;;9.85;;
65757;SDS011;52495;52.208;5.158;2023-06-22T03:02:48;13.70;;;10.25;;
65757;SDS011;52495;52.208;5.158;2023-06-22T03:05:15;12.88;;;11.25;;
65757;SDS011;52495;52.208;5.158;2023-06-22T03:07:44;16.50;;;11.75;;
65757;SDS011;52495;52.208;5.158;2023-06-22T03:10:13;14.85;;;12.52;;
65757;SDS011;52495;52.208;5.158;2023-06-22T03:12:42;15.65;;;12.73;;
65757;SDS011;52495;52.208;5.158;2023-06-22T03:15:10;13.77;;;11.75;;
65757;SDS011;52495;52.208;5.158;2023-06-22T03:17:39;13.15;;;10.35;;
65757;SDS011;52495;52.208;5.158;2023-06-22T03:20:07;12.75;;;10.30;;
65757;SDS011;52495;52.208;5.158;2023-06-22T03:22:36;12.88;;;9.93;;
65757;SDS011;52495;52.208;5.158;2023-06-22T03:25:04;14.02;;;10.75;;
65757;SDS011;52495;52.208;5.158;2023-06-22T03:27:38;13.10;;;10.63;;
65757;SDS011;52495;52.208;5.158;2023-06-22T03:30:07;14.43;;;11.05;;
65757;SDS011;52495;52.208;5.158;2023-06-22T03:32:35;14.70;;;11.95;;
65757;SDS011;52495;52.208;5.158;2023-06-22T03:35:04;14.18;;;10.68;;
65757;SDS011;52495;52.208;5.158;2023-06-22T03:37:33;12.45;;;10.20;;
65757;SDS011;52495;52.208;5.158;2023-06-22T03:40:01;14.00;;;11.20;;
65757;SDS011;52495;52.208;5.158;2023-06-22T03:42:30;14.48;;;10.85;;
65757;SDS011;52495;52.208;5.158;2023-06-22T03:44:59;16.33;;;11.90;;
65757;SDS011;52495;52.208;5.158;2023-06-22T03:47:26;17.95;;;13.10;;
65757;SDS011;52495;52.208;5.158;2023-06-22T03:49:53;18.55;;;12.95;;
65757;SDS011;52495;52.208;5.158;2023-06-22T03:52:20;15.18;;;12.80;;
65757;SDS011;52495;52.208;5.158;2023-06-22T03:54:47;17.45;;;13.80;;
65757;SDS011;52495;52.208;5.158;2023-06-22T03:57:13;14.75;;;12.77;;
65757;SDS011;52495;52.208;5.158;2023-06-22T03:59:40;16.42;;;13.13;;
65757;SDS011;52495;52.208;5.158;2023-06-22T04:02:08;19.50;;;14.43;;
65757;SDS011;52495;52.208;5.158;2023-06-22T04:04:35;18.23;;;13.95;;
65757;SDS011;52495;52.208;5.158;2023-06-22T04:07:04;21.60;;;17.00;;
65757;SDS011;52495;52.208;5.158;2023-06-22T04:09:30;21.77;;;17.02;;
65757;SDS011;52495;52.208;5.158;2023-06-22T04:11:57;23.05;;;17.08;;
65757;SDS011;52495;52.208;5.158;2023-06-22T04:14:24;21.98;;;17.95;;
65757;SDS011;52495;52.208;5.158;2023-06-22T04:16:51;22.13;;;17.13;;
65757;SDS011;52495;52.208;5.158;2023-06-22T04:19:19;22.95;;;17.55;;
65757;SDS011;52495;52.208;5.158;2023-06-22T04:21:46;23.35;;;18.25;;
65757;SDS011;52495;52.208;5.158;2023-06-22T04:24:13;23.85;;;18.48;;
65757;SDS011;52495;52.208;5.158;2023-06-22T04:26:40;24.10;;;19.00;;
65757;SDS011;52495;52.208;5.158;2023-06-22T04:29:10;21.98;;;17.40;;
65757;SDS011;52495;52.208;5.158;2023-06-22T04:31:37;22.27;;;16.73;;
65757;SDS011;52495;52.208;5.158;2023-06-22T04:34:05;24.58;;;16.70;;
65757;SDS011;52495;52.208;5.158;2023-06-22T04:36:37;21.13;;;16.65;;
65757;SDS011;52495;52.208;5.158;2023-06-22T04:39:06;24.73;;;19.13;;
65757;SDS011;52495;52.208;5.158;2023-06-22T04:41:36;28.35;;;21.30;;
65757;SDS011;52495;52.208;5.158;2023-06-22T04:46:36;27.02;;;20.63;;
65757;SDS011;52495;52.208;5.158;2023-06-22T04:49:04;26.00;;;20.45;;
65757;SDS011;52495;52.208;5.158;2023-06-22T04:51:49;22.92;;;18.25;;
65757;SDS011;52495;52.208;5.158;2023-06-22T04:54:17;22.45;;;18.10;;
65757;SDS011;52495;52.208;5.158;2023-06-22T04:56:43;19.67;;;14.65;;
65757;SDS011;52495;52.208;5.158;2023-06-22T04:59:11;19.95;;;16.23;;
65757;SDS011;52495;52.208;5.158;2023-06-22T05:01:39;28.15;;;22.05;;
65757;SDS011;52495;52.208;5.158;2023-06-22T05:04:06;26.48;;;22.35;;
65757;SDS011;52495;52.208;5.158;2023-06-22T05:06:33;30.23;;;23.85;;
65757;SDS011;52495;52.208;5.158;2023-06-22T05:09:01;26.23;;;21.75;;
65757;SDS011;52495;52.208;5.158;2023-06-22T05:11:30;29.98;;;22.33;;
65757;SDS011;52495;52.208;5.158;2023-06-22T05:13:57;25.52;;;21.90;;
65757;SDS011;52495;52.208;5.158;2023-06-22T05:16:24;25.95;;;20.30;;
65757;SDS011;52495;52.208;5.158;2023-06-22T05:18:51;24.60;;;20.42;;
65757;SDS011;52495;52.208;5.158;2023-06-22T05:21:21;27.83;;;23.15;;
65757;SDS011;52495;52.208;5.158;2023-06-22T05:23:48;31.92;;;24.55;;
65757;SDS011;52495;52.208;5.158;2023-06-22T05:26:17;31.15;;;24.80;;
65757;SDS011;52495;52.208;5.158;2023-06-22T05:28:44;33.00;;;27.17;;
65757;SDS011;52495;52.208;5.158;2023-06-22T05:31:12;33.08;;;25.77;;
65757;SDS011;52495;52.208;5.158;2023-06-22T05:33:40;26.70;;;21.73;;
65757;SDS011;52495;52.208;5.158;2023-06-22T05:36:07;29.80;;;24.48;;
65757;SDS011;52495;52.208;5.158;2023-06-22T05:38:34;38.15;;;27.40;;
65757;SDS011;52495;52.208;5.158;2023-06-22T05:41:01;34.05;;;25.70;;
65757;SDS011;52495;52.208;5.158;2023-06-22T05:43:29;32.13;;;24.10;;
65757;SDS011;52495;52.208;5.158;2023-06-22T05:45:56;27.40;;;22.80;;
65757;SDS011;52495;52.208;5.158;2023-06-22T05:48:23;31.08;;;26.27;;
65757;SDS011;52495;52.208;5.158;2023-06-22T05:50:49;30.25;;;26.33;;
65757;SDS011;52495;52.208;5.158;2023-06-22T05:53:16;30.90;;;23.83;;
65757;SDS011;52495;52.208;5.158;2023-06-22T05:55:43;26.70;;;21.67;;
65757;SDS011;52495;52.208;5.158;2023-06-22T05:58:10;33.08;;;27.15;;
65757;SDS011;52495;52.208;5.158;2023-06-22T06:00:39;33.95;;;27.42;;
65757;SDS011;52495;52.208;5.158;2023-06-22T06:03:07;34.40;;;28.15;;
65757;SDS011;52495;52.208;5.158;2023-06-22T06:05:34;26.60;;;21.38;;
65757;SDS011;52495;52.208;5.158;2023-06-22T06:08:02;34.80;;;27.10;;
65757;SDS011;52495;52.208;5.158;2023-06-22T06:10:31;36.20;;;27.48;;
65757;SDS011;52495;52.208;5.158;2023-06-22T06:12:58;36.65;;;29.13;;
65757;SDS011;52495;52.208;5.158;2023-06-22T06:15:27;29.65;;;23.08;;
65757;SDS011;52495;52.208;5.158;2023-06-22T06:17:55;30.52;;;26.35;;
65757;SDS011;52495;52.208;5.158;2023-06-22T06:20:22;31.00;;;24.15;;
65757;SDS011;52495;52.208;5.158;2023-06-22T06:22:50;37.53;;;27.05;;
65757;SDS011;52495;52.208;5.158;2023-06-22T06:25:17;32.10;;;26.95;;
65757;SDS011;52495;52.208;5.158;2023-06-22T06:27:47;31.23;;;25.27;;
65757;SDS011;52495;52.208;5.158;2023-06-22T06:30:15;34.83;;;27.10;;
65757;SDS011;52495;52.208;5.158;2023-06-22T06:32:43;32.10;;;23.02;;
65757;SDS011;52495;52.208;5.158;2023-06-22T06:35:13;34.25;;;26.85;;
65757;SDS011;52495;52.208;5.158;2023-06-22T06:37:42;27.40;;;22.13;;
65757;SDS011;52495;52.208;5.158;2023-06-22T06:40:10;27.60;;;22.67;;
65757;SDS011;52495;52.208;5.158;2023-06-22T06:42:40;28.25;;;22.08;;
65757;SDS011;52495;52.208;5.158;2023-06-22T06:45:10;30.05;;;22.30;;
65757;SDS011;52495;52.208;5.158;2023-06-22T06:47:38;23.33;;;19.30;;
65757;SDS011;52495;52.208;5.158;2023-06-22T06:50:05;28.15;;;24.02;;
65757;SDS011;52495;52.208;5.158;2023-06-22T06:52:34;28.23;;;24.42;;
65757;SDS011;52495;52.208;5.158;2023-06-22T06:55:01;28.85;;;23.23;;
65757;SDS011;52495;52.208;5.158;2023-06-22T06:57:29;28.05;;;22.42;;
65757;SDS011;52495;52.208;5.158;2023-06-22T06:59:57;24.65;;;21.13;;
65757;SDS011;52495;52.208;5.158;2023-06-22T07:02:25;27.33;;;23.85;;
65757;SDS011;52495;52.208;5.158;2023-06-22T07:04:53;24.88;;;22.08;;
65757;SDS011;52495;52.208;5.158;2023-06-22T07:07:21;26.98;;;23.33;;
65757;SDS011;52495;52.208;5.158;2023-06-22T07:09:49;27.10;;;23.02;;
65757;SDS011;52495;52.208;5.158;2023-06-22T07:12:16;26.10;;;20.45;;
65757;SDS011;52495;52.208;5.158;2023-06-22T07:14:43;23.73;;;18.83;;
65757;SDS011;52495;52.208;5.158;2023-06-22T07:17:10;21.88;;;18.08;;
65757;SDS011;52495;52.208;5.158;2023-06-22T07:19:36;27.73;;;22.55;;
65757;SDS011;52495;52.208;5.158;2023-06-22T07:22:04;20.48;;;16.25;;
65757;SDS011;52495;52.208;5.158;2023-06-22T07:24:31;23.77;;;18.85;;
65757;SDS011;52495;52.208;5.158;2023-06-22T07:26:59;24.90;;;20.90;;
65757;SDS011;52495;52.208;5.158;2023-06-22T07:29:27;19.92;;;17.67;;
65757;SDS011;52495;52.208;5.158;2023-06-22T07:31:54;24.58;;;20.23;;
65757;SDS011;52495;52.208;5.158;2023-06-22T07:34:21;17.63;;;14.85;;
65757;SDS011;52495;52.208;5.158;2023-06-22T07:36:48;21.33;;;19.05;;
65757;SDS011;52495;52.208;5.158;2023-06-22T07:39:15;26.77;;;21.17;;
65757;SDS011;52495;52.208;5.158;2023-06-22T07:41:42;19.92;;;16.45;;
65757;SDS011;52495;52.208;5.158;2023-06-22T07:44:10;25.00;;;19.85;;
65757;SDS011;52495;52.208;5.158;2023-06-22T07:46:37;27.60;;;23.05;;
65757;SDS011;52495;52.208;5.158;2023-06-22T07:49:04;21.05;;;18.42;;
65757;SDS011;52495;52.208;5.158;2023-06-22T07:51:30;19.75;;;16.67;;
65757;SDS011;52495;52.208;5.158;2023-06-22T07:53:57;22.90;;;19.25;;
65757;SDS011;52495;52.208;5.158;2023-06-22T07:56:24;18.90;;;15.88;;
65757;SDS011;52495;52.208;5.158;2023-06-22T07:58:51;23.58;;;20.38;;
65757;SDS011;52495;52.208;5.158;2023-06-22T08:01:19;18.27;;;14.93;;
65757;SDS011;52495;52.208;5.158;2023-06-22T08:03:47;24.20;;;19.33;;
65757;SDS011;52495;52.208;5.158;2023-06-22T08:06:14;21.23;;;18.23;;
65757;SDS011;52495;52.208;5.158;2023-06-22T08:08:41;20.63;;;16.70;;
65757;SDS011;52495;52.208;5.158;2023-06-22T08:11:08;20.00;;;17.27;;
65757;SDS011;52495;52.208;5.158;2023-06-22T08:13:35;20.98;;;17.85;;
65757;SDS011;52495;52.208;5.158;2023-06-22T08:16:02;21.80;;;17.48;;
65757;SDS011;52495;52.208;5.158;2023-06-22T08:18:30;18.73;;;16.70;;
65757;SDS011;52495;52.208;5.158;2023-06-22T08:20:57;18.30;;;14.88;;
65757;SDS011;52495;52.208;5.158;2023-06-22T08:23:24;19.88;;;15.07;;
65757;SDS011;52495;52.208;5.158;2023-06-22T08:25:51;20.50;;;14.55;;
65757;SDS011;52495;52.208;5.158;2023-06-22T08:28:18;19.30;;;15.73;;
65757;SDS011;52495;52.208;5.158;2023-06-22T08:30:44;21.00;;;17.80;;
65757;SDS011;52495;52.208;5.158;2023-06-22T08:33:11;36.80;;;17.48;;
65757;SDS011;52495;52.208;5.158;2023-06-22T08:35:40;19.55;;;16.55;;
65757;SDS011;52495;52.208;5.158;2023-06-22T08:38:08;17.92;;;15.80;;
65757;SDS011;52495;52.208;5.158;2023-06-22T08:40:34;18.13;;;16.20;;
65757;SDS011;52495;52.208;5.158;2023-06-22T08:43:01;18.85;;;13.57;;
65757;SDS011;52495;52.208;5.158;2023-06-22T08:45:28;16.65;;;14.57;;
65757;SDS011;52495;52.208;5.158;2023-06-22T08:47:55;17.05;;;13.80;;
65757;SDS011;52495;52.208;5.158;2023-06-22T08:50:22;13.75;;;11.65;;
65757;SDS011;52495;52.208;5.158;2023-06-22T08:52:50;14.13;;;11.68;;
65757;SDS011;52495;52.208;5.158;2023-06-22T08:55:16;12.25;;;10.82;;
65757;SDS011;52495;52.208;5.158;2023-06-22T08:57:43;15.50;;;12.55;;
65757;SDS011;52495;52.208;5.158;2023-06-22T09:00:10;17.88;;;13.25;;
65757;SDS011;52495;52.208;5.158;2023-06-22T09:02:42;12.30;;;9.25;;
65757;SDS011;52495;52.208;5.158;2023-06-22T09:05:09;15.57;;;13.18;;
65757;SDS011;52495;52.208;5.158;2023-06-22T09:07:38;15.07;;;12.05;;
65757;SDS011;52495;52.208;5.158;2023-06-22T09:10:07;13.07;;;11.68;;
65757;SDS011;52495;52.208;5.158;2023-06-22T09:12:34;15.07;;;12.27;;
65757;SDS011;52495;52.208;5.158;2023-06-22T09:15:03;18.33;;;11.73;;
65757;SDS011;52495;52.208;5.158;2023-06-22T09:17:32;14.20;;;11.75;;
65757;SDS011;52495;52.208;5.158;2023-06-22T09:19:59;12.02;;;10.70;;
65757;SDS011;52495;52.208;5.158;2023-06-22T09:22:26;14.23;;;11.40;;
65757;SDS011;52495;52.208;5.158;2023-06-22T09:24:54;16.45;;;10.18;;
65757;SDS011;52495;52.208;5.158;2023-06-22T09:27:23;12.27;;;9.88;;
65757;SDS011;52495;52.208;5.158;2023-06-22T09:29:50;11.35;;;7.93;;
65757;SDS011;52495;52.208;5.158;2023-06-22T09:32:16;10.90;;;8.85;;
65757;SDS011;52495;52.208;5.158;2023-06-22T09:34:43;12.90;;;7.43;;
65757;SDS011;52495;52.208;5.158;2023-06-22T09:37:10;9.32;;;5.90;;
65757;SDS011;52495;52.208;5.158;2023-06-22T09:39:37;7.93;;;5.78;;
65757;SDS011;52495;52.208;5.158;2023-06-22T09:42:04;9.82;;;6.90;;
65757;SDS011;52495;52.208;5.158;2023-06-22T09:44:33;10.07;;;6.65;;
65757;SDS011;52495;52.208;5.158;2023-06-22T09:46:59;10.52;;;6.65;;
65757;SDS011;52495;52.208;5.158;2023-06-22T09:49:27;7.80;;;5.55;;
65757;SDS011;52495;52.208;5.158;2023-06-22T09:51:53;9.80;;;6.25;;
65757;SDS011;52495;52.208;5.158;2023-06-22T09:54:20;10.15;;;6.78;;
65757;SDS011;52495;52.208;5.158;2023-06-22T09:56:47;8.52;;;5.82;;
65757;SDS011;52495;52.208;5.158;2023-06-22T09:59:14;7.10;;;5.75;;
65757;SDS011;52495;52.208;5.158;2023-06-22T10:01:42;9.45;;;6.38;;
65757;SDS011;52495;52.208;5.158;2023-06-22T10:04:09;7.70;;;5.40;;
65757;SDS011;52495;52.208;5.158;2023-06-22T10:06:35;8.57;;;5.68;;
65757;SDS011;52495;52.208;5.158;2023-06-22T10:09:06;9.15;;;6.60;;
65757;SDS011;52495;52.208;5.158;2023-06-22T10:11:33;7.57;;;6.20;;
65757;SDS011;52495;52.208;5.158;2023-06-22T10:14:00;8.80;;;6.10;;
65757;SDS011;52495;52.208;5.158;2023-06-22T10:16:32;6.53;;;5.57;;
65757;SDS011;52495;52.208;5.158;2023-06-22T10:19:02;10.05;;;5.72;;
65757;SDS011;52495;52.208;5.158;2023-06-22T10:21:29;9.05;;;6.07;;
65757;SDS011;52495;52.208;5.158;2023-06-22T10:23:55;11.30;;;7.53;;
65757;SDS011;52495;52.208;5.158;2023-06-22T10:26:22;9.32;;;6.85;;
65757;SDS011;52495;52.208;5.158;2023-06-22T10:28:49;11.90;;;7.97;;
65757;SDS011;52495;52.208;5.158;2023-06-22T10:31:16;9.38;;;6.85;;
65757;SDS011;52495;52.208;5.158;2023-06-22T10:33:43;8.70;;;6.72;;
65757;SDS011;52495;52.208;5.158;2023-06-22T10:36:11;10.57;;;7.53;;
65757;SDS011;52495;52.208;5.158;2023-06-22T10:38:38;9.10;;;5.88;;
65757;SDS011;52495;52.208;5.158;2023-06-22T10:41:05;9.48;;;7.03;;
65757;SDS011;52495;52.208;5.158;2023-06-22T10:43:32;9.07;;;7.40;;
65757;SDS011;52495;52.208;5.158;2023-06-22T10:45:58;8.88;;;6.20;;
65757;SDS011;52495;52.208;5.158;2023-06-22T10:48:25;9.07;;;5.75;;
65757;SDS011;52495;52.208;5.158;2023-06-22T10:50:52;8.52;;;6.18;;
65757;SDS011;52495;52.208;5.158;2023-06-22T10:53:21;9.13;;;6.45;;
65757;SDS011;52495;52.208;5.158;2023-06-22T10:55:47;7.00;;;5.63;;
65757;SDS011;52495;52.208;5.158;2023-06-22T10:58:14;7.82;;;5.63;;
65757;SDS011;52495;52.208;5.158;2023-06-22T11:00:41;10.85;;;8.20;;
65757;SDS011;52495;52.208;5.158;2023-06-22T11:03:08;6.97;;;5.80;;
65757;SDS011;52495;52.208;5.158;2023-06-22T11:05:35;7.22;;;5.68;;
65757;SDS011;52495;52.208;5.158;2023-06-22T11:08:01;7.32;;;6.25;;
65757;SDS011;52495;52.208;5.158;2023-06-22T11:10:30;8.13;;;6.00;;
65757;SDS011;52495;52.208;5.158;2023-06-22T11:12:56;9.57;;;6.88;;
65757;SDS011;52495;52.208;5.158;2023-06-22T11:15:24;9.55;;;6.45;;
65757;SDS011;52495;52.208;5.158;2023-06-22T11:17:51;9.13;;;6.97;;
65757;SDS011;52495;52.208;5.158;2023-06-22T11:20:18;7.25;;;6.22;;
65757;SDS011;52495;52.208;5.158;2023-06-22T11:22:45;7.97;;;6.32;;
65757;SDS011;52495;52.208;5.158;2023-06-22T11:25:12;9.02;;;6.70;;
65757;SDS011;52495;52.208;5.158;2023-06-22T11:27:40;11.23;;;6.53;;
65757;SDS011;52495;52.208;5.158;2023-06-22T11:30:07;9.35;;;6.20;;
65757;SDS011;52495;52.208;5.158;2023-06-22T11:32:35;8.98;;;6.45;;
65757;SDS011;52495;52.208;5.158;2023-06-22T11:35:01;10.07;;;7.15;;
65757;SDS011;52495;52.208;5.158;2023-06-22T11:37:28;8.75;;;6.38;;
65757;SDS011;52495;52.208;5.158;2023-06-22T11:39:55;9.13;;;6.65;;
65757;SDS011;52495;52.208;5.158;2023-06-22T11:42:23;8.30;;;6.68;;
65757;SDS011;52495;52.208;5.158;2023-06-22T11:44:51;8.80;;;6.97;;
65757;SDS011;52495;52.208;5.158;2023-06-22T11:47:18;9.63;;;6.53;;
65757;SDS011;52495;52.208;5.158;2023-06-22T11:49:45;9.50;;;6.38;;
65757;SDS011;52495;52.208;5.158;2023-06-22T11:52:12;8.57;;;6.70;;
65757;SDS011;52495;52.208;5.158;2023-06-22T11:54:39;10.85;;;7.78;;
65757;SDS011;52495;52.208;5.158;2023-06-22T11:57:06;9.15;;;6.82;;
65757;SDS011;52495;52.208;5.158;2023-06-22T11:59:33;9.25;;;7.10;;
65757;SDS011;52495;52.208;5.158;2023-06-22T12:02:01;8.57;;;7.05;;
65757;SDS011;52495;52.208;5.158;2023-06-22T12:04:29;9.52;;;7.45;;
65757;SDS011;52495;52.208;5.158;2023-06-22T12:06:56;13.90;;;8.77;;
65757;SDS011;52495;52.208;5.158;2023-06-22T12:09:23;10.43;;;8.55;;
65757;SDS011;52495;52.208;5.158;2023-06-22T12:11:50;8.90;;;7.68;;
65757;SDS011;52495;52.208;5.158;2023-06-22T12:14:17;11.48;;;8.20;;
65757;SDS011;52495;52.208;5.158;2023-06-22T12:16:44;12.93;;;9.27;;
65757;SDS011;52495;52.208;5.158;2023-06-22T12:19:12;11.88;;;8.60;;
65757;SDS011;52495;52.208;5.158;2023-06-22T12:21:39;14.30;;;10.05;;
65757;SDS011;52495;52.208;5.158;2023-06-22T12:24:07;14.07;;;10.10;;
65757;SDS011;52495;52.208;5.158;2023-06-22T12:26:33;11.23;;;8.70;;
65757;SDS011;52495;52.208;5.158;2023-06-22T12:29:00;10.73;;;9.20;;
65757;SDS011;52495;52.208;5.158;2023-06-22T12:31:27;12.80;;;9.98;;
65757;SDS011;52495;52.208;5.158;2023-06-22T12:33:54;12.13;;;10.23;;
65757;SDS011;52495;52.208;5.158;2023-06-22T12:36:22;12.00;;;10.65;;
65757;SDS011;52495;52.208;5.158;2023-06-22T12:38:49;11.25;;;9.57;;
65757;SDS011;52495;52.208;5.158;2023-06-22T12:41:17;12.77;;;10.80;;
65757;SDS011;52495;52.208;5.158;2023-06-22T12:43:44;14.07;;;11.25;;
65757;SDS011;52495;52.208;5.158;2023-06-22T12:46:11;15.35;;;12.82;;
65757;SDS011;52495;52.208;5.158;2023-06-22T12:48:38;12.43;;;9.98;;
65757;SDS011;52495;52.208;5.158;2023-06-22T12:51:07;11.80;;;10.00;;
65757;SDS011;52495;52.208;5.158;2023-06-22T12:53:36;13.00;;;10.13;;
65757;SDS011;52495;52.208;5.158;2023-06-22T12:56:03;14.85;;;10.15;;
65757;SDS011;52495;52.208;5.158;2023-06-22T12:58:30;12.85;;;10.27;;
65757;SDS011;52495;52.208;5.158;2023-06-22T13:00:56;16.02;;;11.18;;
65757;SDS011;52495;52.208;5.158;2023-06-22T13:03:23;12.40;;;9.43;;
65757;SDS011;52495;52.208;5.158;2023-06-22T13:05:53;13.73;;;9.75;;
65757;SDS011;52495;52.208;5.158;2023-06-22T13:08:20;11.05;;;7.95;;
65757;SDS011;52495;52.208;5.158;2023-06-22T13:10:48;9.88;;;7.60;;
65757;SDS011;52495;52.208;5.158;2023-06-22T13:13:15;7.93;;;6.38;;
65757;SDS011;52495;52.208;5.158;2023-06-22T13:15:42;10.13;;;6.40;;
65757;SDS011;52495;52.208;5.158;2023-06-22T13:18:09;8.30;;;6.20;;
65757;SDS011;52495;52.208;5.158;2023-06-22T13:20:35;7.88;;;5.45;;
65757;SDS011;52495;52.208;5.158;2023-06-22T13:23:02;8.10;;;6.38;;
65757;SDS011;52495;52.208;5.158;2023-06-22T13:25:29;11.45;;;6.72;;
65757;SDS011;52495;52.208;5.158;2023-06-22T13:27:57;9.75;;;6.57;;
65757;SDS011;52495;52.208;5.158;2023-06-22T13:30:24;12.55;;;7.85;;
65757;SDS011;52495;52.208;5.158;2023-06-22T13:32:51;9.20;;;7.47;;
65757;SDS011;52495;52.208;5.158;2023-06-22T13:35:17;12.65;;;8.18;;
65757;SDS011;52495;52.208;5.158;2023-06-22T13:37:44;11.55;;;8.32;;
65757;SDS011;52495;52.208;5.158;2023-06-22T13:40:11;11.18;;;8.25;;
65757;SDS011;52495;52.208;5.158;2023-06-22T13:42:38;8.05;;;6.53;;
65757;SDS011;52495;52.208;5.158;2023-06-22T13:45:07;10.88;;;8.18;;
65757;SDS011;52495;52.208;5.158;2023-06-22T13:47:34;9.95;;;7.30;;
65757;SDS011;52495;52.208;5.158;2023-06-22T13:50:02;10.90;;;8.35;;
65757;SDS011;52495;52.208;5.158;2023-06-22T13:52:30;12.35;;;8.25;;
65757;SDS011;52495;52.208;5.158;2023-06-22T13:54:56;9.57;;;6.75;;
65757;SDS011;52495;52.208;5.158;2023-06-22T13:57:23;9.38;;;7.20;;
65757;SDS011;52495;52.208;5.158;2023-06-22T13:59:50;9.95;;;6.60;;
65757;SDS011;52495;52.208;5.158;2023-06-22T14:02:18;8.23;;;6.90;;
65757;SDS011;52495;52.208;5.158;2023-06-22T14:04:45;9.00;;;6.95;;
65757;SDS011;52495;52.208;5.158;2023-06-22T14:07:12;8.80;;;7.28;;
65757;SDS011;52495;52.208;5.158;2023-06-22T14:09:39;9.70;;;7.78;;
65757;SDS011;52495;52.208;5.158;2023-06-22T14:12:06;8.63;;;6.47;;
65757;SDS011;52495;52.208;5.158;2023-06-22T14:14:34;9.68;;;7.38;;
65757;SDS011;52495;52.208;5.158;2023-06-22T14:17:01;10.05;;;8.25;;
65757;SDS011;52495;52.208;5.158;2023-06-22T14:19:29;7.88;;;6.60;;
65757;SDS011;52495;52.208;5.158;2023-06-22T14:21:56;8.32;;;6.72;;
65757;SDS011;52495;52.208;5.158;2023-06-22T14:24:23;9.27;;;8.30;;
65757;SDS011;52495;52.208;5.158;2023-06-22T14:26:50;9.80;;;7.85;;
65757;SDS011;52495;52.208;5.158;2023-06-22T14:29:17;11.18;;;9.38;;
65757;SDS011;52495;52.208;5.158;2023-06-22T14:31:44;14.00;;;10.65;;
65757;SDS011;52495;52.208;5.158;2023-06-22T14:34:12;16.15;;;10.95;;
65757;SDS011;52495;52.208;5.158;2023-06-22T14:36:40;12.40;;;9.95;;
65757;SDS011;52495;52.208;5.158;2023-06-22T14:39:07;15.60;;;10.40;;
65757;SDS011;52495;52.208;5.158;2023-06-22T14:41:34;15.57;;;11.40;;